Time;durP1;ratioP1;P1;durP2;ratioP2;P2;SDS_P1;SDS_P2;PMS_P1;PMS_P2;Temp;Humidity;BMP_temperature;BMP_pressure;BME280_temperature;BME280_humidity;BME280_pressure;Samples;Min_cycle;Max_cycle;Signal;HPM_P1;HPM_P2
2023/11/26 00:01:37;;;;;;;1.88;1.10;;;5.10;91.80;;;;;;6218838;28;20046;-77
2023/11/26 00:04:39;;;;;;;2.33;0.98;;;5.10;91.80;;;;;;6225516;28;20522;-78
2023/11/26 00:07:42;;;;;;;2.60;2.40;;;5.10;91.80;;;;;;6210228;28;20058;-80
2023/11/26 00:10:45;;;;;;;3.20;1.30;;;5.10;91.80;;;;;;6200821;28;20046;-79
2023/11/26 00:13:48;;;;;;;3.65;1.30;;;5.00;91.70;;;;;;6209641;28;20430;-79
2023/11/26 00:16:50;;;;;;;3.40;2.38;;;5.00;91.80;;;;;;6218625;28;20068;-77
2023/11/26 00:19:54;;;;;;;3.67;2.15;;;4.90;91.90;;;;;;6215772;28;20513;-78
2023/11/26 00:22:56;;;;;;;3.13;1.67;;;5.00;92.00;;;;;;6219571;28;20196;-79
2023/11/26 00:25:58;;;;;;;3.60;1.42;;;5.00;92.00;;;;;;6216769;28;20056;-78
2023/11/26 00:29:01;;;;;;;11.73;3.55;;;5.00;92.00;;;;;;6224471;28;20052;-79
2023/11/26 00:32:02;;;;;;;4.85;2.38;;;4.90;92.00;;;;;;6225242;28;20067;-80
2023/11/26 00:35:05;;;;;;;5.97;1.90;;;4.90;91.90;;;;;;6221600;28;20426;-78
2023/11/26 00:38:07;;;;;;;3.53;1.88;;;4.70;91.70;;;;;;6229895;28;20427;-79
2023/11/26 00:41:09;;;;;;;1.50;1.20;;;4.50;91.90;;;;;;6230297;28;20149;-79
2023/11/26 00:44:12;;;;;;;4.75;1.98;;;4.30;91.60;;;;;;6222937;28;20062;-78
2023/11/26 00:47:13;;;;;;;2.72;2.15;;;4.20;91.70;;;;;;6209597;28;20046;-79
2023/11/26 00:50:17;;;;;;;2.80;1.90;;;4.00;91.80;;;;;;6212203;28;20049;-78
2023/11/26 00:53:19;;;;;;;3.58;1.88;;;4.00;91.90;;;;;;6223222;28;20049;-78
2023/11/26 00:56:21;;;;;;;1.30;1.20;;;3.80;91.90;;;;;;6219077;28;20089;-79
2023/11/26 00:59:24;;;;;;;4.30;2.40;;;3.80;91.90;;;;;;6213513;28;20052;-80
2023/11/26 01:02:29;;;;;;;4.25;1.88;;;3.60;92.00;;;;;;6221617;28;20048;-80
2023/11/26 01:05:31;;;;;;;5.70;2.60;;;3.50;92.00;;;;;;6230661;28;20048;-78
2023/11/26 01:08:32;;;;;;;3.22;2.63;;;3.40;92.00;;;;;;6223617;28;20061;-80
2023/11/26 01:11:37;;;;;;;4.95;1.55;;;3.40;92.10;;;;;;6213561;28;20042;-79
2023/11/26 01:14:40;;;;;;;3.92;1.20;;;3.30;92.20;;;;;;6229760;28;20129;-80
2023/11/26 01:17:42;;;;;;;2.30;1.42;;;3.20;92.30;;;;;;6214465;28;20052;-79
2023/11/26 01:20:44;;;;;;;3.47;1.88;;;3.20;92.40;;;;;;6222571;28;20049;-79
2023/11/26 01:23:46;;;;;;;2.10;1.42;;;3.20;92.50;;;;;;6215295;28;20057;-78
2023/11/26 01:26:48;;;;;;;1.80;1.25;;;3.20;92.50;;;;;;6228074;28;20057;-78
2023/11/26 01:29:51;;;;;;;3.30;1.48;;;3.20;92.50;;;;;;6221318;28;20498;-78
2023/11/26 01:32:52;;;;;;;4.40;1.60;;;3.10;92.50;;;;;;6227255;28;20054;-80
2023/11/26 01:35:54;;;;;;;4.55;1.80;;;3.10;92.50;;;;;;6219554;28;20050;-79
2023/11/26 01:38:56;;;;;;;2.03;1.30;;;3.10;92.60;;;;;;6212654;28;20047;-78
2023/11/26 01:41:58;;;;;;;1.77;1.30;;;3.10;92.70;;;;;;6218183;28;20050;-78
2023/11/26 01:45:01;;;;;;;10.45;3.10;;;3.20;92.80;;;;;;6205497;28;20047;-79
2023/11/26 01:48:04;;;;;;;2.80;1.77;;;3.30;92.80;;;;;;6217934;28;20060;-80
2023/11/26 01:51:09;;;;;;;6.43;1.48;;;3.30;92.80;;;;;;6219388;28;20058;-78
2023/11/26 01:54:11;;;;;;;3.72;1.73;;;3.40;92.80;;;;;;6223679;28;20116;-80
2023/11/26 01:57:16;;;;;;;3.35;1.75;;;3.40;92.80;;;;;;6219733;28;20049;-79
2023/11/26 02:00:21;;;;;;;8.90;2.10;;;3.40;92.80;;;;;;6220260;28;20046;-79
2023/11/26 02:03:23;;;;;;;4.43;1.13;;;3.50;92.90;;;;;;6210974;28;20126;-78
2023/11/26 02:06:25;;;;;;;9.50;1.98;;;3.60;92.90;;;;;;6219930;28;20068;-79
2023/11/26 02:09:28;;;;;;;6.45;1.35;;;3.60;92.90;;;;;;6213605;28;20049;-79
2023/11/26 02:12:29;;;;;;;4.88;1.60;;;3.60;92.90;;;;;;6225386;28;20551;-79
2023/11/26 02:15:33;;;;;;;3.42;1.67;;;3.60;92.90;;;;;;6215969;28;20401;-78
2023/11/26 02:18:34;;;;;;;4.82;1.42;;;3.70;93.00;;;;;;6211341;28;20052;-78
2023/11/26 02:21:36;;;;;;;4.78;1.80;;;3.70;93.00;;;;;;6219721;28;20411;-78
2023/11/26 02:24:41;;;;;;;5.57;1.35;;;3.80;93.00;;;;;;6218520;28;20050;-80
2023/11/26 02:27:44;;;;;;;4.85;1.45;;;3.80;93.00;;;;;;6212853;28;20057;-80
2023/11/26 02:30:45;;;;;;;1.83;1.30;;;3.90;93.00;;;;;;6219231;28;20057;-79
2023/11/26 02:33:47;;;;;;;3.70;1.40;;;3.90;93.00;;;;;;6211542;28;20057;-78
2023/11/26 02:36:49;;;;;;;1.42;1.33;;;3.90;93.00;;;;;;6212077;28;20121;-80
2023/11/26 02:39:52;;;;;;;1.20;1.08;;;3.90;93.00;;;;;;6227729;28;20053;-79
2023/11/26 02:42:56;;;;;;;5.53;3.42;;;4.00;93.10;;;;;;6226392;28;20046;-78
2023/11/26 02:45:58;;;;;;;4.45;1.20;;;4.00;93.00;;;;;;6203910;28;20057;-79
2023/11/26 02:48:59;;;;;;;3.03;1.20;;;4.00;93.10;;;;;;6209617;28;20046;-79
2023/11/26 02:52:01;;;;;;;5.50;1.30;;;4.00;93.00;;;;;;6221538;28;20060;-78
2023/11/26 02:55:05;;;;;;;4.95;1.40;;;4.00;93.00;;;;;;6218882;28;20056;-77
2023/11/26 02:58:09;;;;;;;2.25;1.50;;;4.10;93.10;;;;;;6216362;28;20052;-76
2023/11/26 03:01:17;;;;;;;3.63;1.60;;;4.10;93.00;;;;;;6218987;28;20104;-81
2023/11/26 03:04:21;;;;;;;1.80;1.30;;;4.10;93.10;;;;;;6224560;28;20130;-80
2023/11/26 03:07:27;;;;;;;1.88;1.27;;;4.10;93.10;;;;;;6215480;28;20046;-80
2023/11/26 03:13:51;;;;;;;2.50;1.48;;;4.10;93.00;;;;;;6211097;28;20655;-80
2023/11/26 03:16:52;;;;;;;2.58;1.20;;;4.10;93.00;;;;;;6219227;28;20120;-79
2023/11/26 03:19:55;;;;;;;2.83;1.10;;;4.10;93.00;;;;;;6218895;28;20060;-80
2023/11/26 03:22:57;;;;;;;2.53;1.10;;;4.10;93.00;;;;;;6219043;28;20054;-79
2023/11/26 03:26:00;;;;;;;2.13;1.42;;;4.10;93.40;;;;;;6217559;28;20054;-80
2023/11/26 03:29:02;;;;;;;3.97;1.30;;;4.10;93.00;;;;;;6211354;28;20046;-79
2023/11/26 03:32:04;;;;;;;6.35;1.05;;;4.00;92.90;;;;;;6215381;28;20049;-80
2023/11/26 03:35:07;;;;;;;1.38;1.05;;;4.00;92.80;;;;;;6217230;28;20054;-78
2023/11/26 03:38:09;;;;;;;4.45;0.85;;;3.90;92.80;;;;;;6217139;28;20042;-78
2023/11/26 03:41:12;;;;;;;1.25;0.90;;;3.80;92.70;;;;;;6212477;28;20053;-78
2023/11/26 03:44:14;;;;;;;1.40;0.93;;;3.70;92.70;;;;;;6218887;28;20128;-79
2023/11/26 03:47:16;;;;;;;3.10;1.33;;;3.60;92.60;;;;;;6225757;28;20081;-79
2023/11/26 03:50:19;;;;;;;1.55;0.98;;;3.50;92.70;;;;;;6216982;28;20134;-80
2023/11/26 03:53:20;;;;;;;3.78;1.20;;;3.50;92.80;;;;;;6217756;28;20570;-78
2023/11/26 03:56:23;;;;;;;1.90;1.48;;;3.40;92.90;;;;;;6213271;28;20046;-80
2023/11/26 03:59:26;;;;;;;1.77;1.08;;;3.40;92.80;;;;;;6211953;28;20042;-79
2023/11/26 04:02:28;;;;;;;2.67;1.23;;;3.40;92.80;;;;;;6217222;28;20454;-79
2023/11/26 04:05:30;;;;;;;1.77;1.25;;;3.40;93.00;;;;;;6212335;28;20150;-79
2023/11/26 04:08:32;;;;;;;2.63;1.10;;;3.40;93.10;;;;;;6216514;28;20050;-79
2023/11/26 04:11:35;;;;;;;3.00;1.05;;;3.40;93.00;;;;;;6223102;28;20050;-77
2023/11/26 04:14:39;;;;;;;3.50;1.92;;;3.40;93.00;;;;;;6216906;28;20054;-80
2023/11/26 04:17:41;;;;;;;4.13;1.17;;;3.40;92.90;;;;;;6214426;28;20058;-79
2023/11/26 04:20:42;;;;;;;3.08;1.98;;;3.40;93.00;;;;;;6217330;28;20049;-80
2023/11/26 04:23:44;;;;;;;1.75;1.65;;;3.40;93.00;;;;;;6217096;28;20045;-79
2023/11/26 04:26:47;;;;;;;6.57;1.42;;;3.40;93.00;;;;;;6224646;28;20061;-79
2023/11/26 04:29:49;;;;;;;2.88;1.75;;;3.50;93.10;;;;;;6224391;28;20049;-79
2023/11/26 04:32:51;;;;;;;3.22;2.92;;;3.50;93.00;;;;;;6216243;28;20037;-79
2023/11/26 04:35:52;;;;;;;3.65;1.48;;;3.50;93.00;;;;;;6224375;28;20270;-80
2023/11/26 04:38:54;;;;;;;2.00;1.75;;;3.40;93.00;;;;;;6216188;28;20042;-79
2023/11/26 04:41:57;;;;;;;2.90;1.63;;;3.50;93.10;;;;;;6222788;28;20065;-78
2023/11/26 04:44:59;;;;;;;4.38;2.08;;;3.50;93.00;;;;;;6215459;28;20156;-79
2023/11/26 04:48:01;;;;;;;4.88;1.20;;;3.50;93.00;;;;;;6217194;28;20053;-80
2023/11/26 04:51:03;;;;;;;1.38;1.08;;;3.40;93.00;;;;;;6216531;28;20050;-79
2023/11/26 04:54:05;;;;;;;1.85;1.05;;;3.50;93.10;;;;;;6224372;28;20056;-78
2023/11/26 04:57:09;;;;;;;1.83;1.10;;;3.50;93.10;;;;;;6223541;28;20046;-79
2023/11/26 05:00:13;;;;;;;5.55;1.30;;;3.50;93.10;;;;;;6216662;28;20056;-78
2023/11/26 05:03:14;;;;;;;3.53;1.40;;;3.50;93.00;;;;;;6202423;28;20051;-78
2023/11/26 05:06:17;;;;;;;2.33;1.23;;;3.50;92.90;;;;;;6215741;28;20061;-80
2023/11/26 05:09:20;;;;;;;3.38;1.30;;;3.40;92.80;;;;;;6225091;28;20066;-79
2023/11/26 05:12:23;;;;;;;3.10;1.20;;;3.30;92.80;;;;;;6228830;28;20045;-77
2023/11/26 05:15:25;;;;;;;1.85;1.25;;;3.20;92.90;;;;;;6212842;28;20045;-79
2023/11/26 05:18:27;;;;;;;1.90;1.33;;;3.20;93.10;;;;;;6227381;28;20052;-78
2023/11/26 05:21:28;;;;;;;3.15;2.45;;;3.30;93.20;;;;;;6216102;28;20053;-78
2023/11/26 05:24:30;;;;;;;1.95;1.58;;;3.30;93.20;;;;;;6225233;28;20065;-78
2023/11/26 05:27:33;;;;;;;1.48;1.20;;;3.30;93.10;;;;;;6221794;28;20053;-78
2023/11/26 05:30:35;;;;;;;4.05;1.65;;;3.30;93.10;;;;;;6219716;28;20054;-78
2023/11/26 05:33:36;;;;;;;3.50;1.33;;;3.30;93.10;;;;;;6206863;28;20051;-79
2023/11/26 05:36:38;;;;;;;4.25;1.40;;;3.30;93.20;;;;;;6220596;28;20145;-79
2023/11/26 05:39:40;;;;;;;1.45;1.05;;;3.40;93.30;;;;;;6219669;28;20054;-79
2023/11/26 05:42:43;;;;;;;3.60;1.38;;;3.40;93.30;;;;;;6212268;28;20541;-78
2023/11/26 05:45:45;;;;;;;7.72;4.43;;;3.40;93.20;;;;;;6220224;28;20430;-79
2023/11/26 05:48:47;;;;;;;2.35;1.73;;;3.40;93.20;;;;;;6219647;28;20046;-79
2023/11/26 05:51:49;;;;;;;2.60;1.65;;;3.50;93.30;;;;;;6227327;28;20042;-80
2023/11/26 05:54:51;;;;;;;5.25;1.75;;;3.50;93.30;;;;;;6212756;28;20049;-79
2023/11/26 05:57:55;;;;;;;3.10;1.98;;;3.50;93.30;;;;;;6219649;28;20050;-79
2023/11/26 06:00:57;;;;;;;4.13;3.35;;;3.50;93.30;;;;;;6220771;28;20046;-80
2023/11/26 06:03:59;;;;;;;4.93;4.35;;;3.60;93.30;;;;;;6220349;28;20132;-79
2023/11/26 06:07:01;;;;;;;4.68;2.75;;;3.60;93.40;;;;;;6222301;28;20050;-79
2023/11/26 06:10:03;;;;;;;4.20;2.22;;;3.70;93.50;;;;;;6219653;28;20053;-78
2023/11/26 06:13:06;;;;;;;3.72;2.65;;;3.70;93.40;;;;;;6228078;28;20046;-79
2023/11/26 06:16:09;;;;;;;5.00;2.75;;;3.80;93.40;;;;;;6219584;28;20565;-79
2023/11/26 06:19:12;;;;;;;7.20;3.65;;;3.80;93.40;;;;;;6217527;28;20042;-80
2023/11/26 06:22:13;;;;;;;7.55;4.18;;;3.90;93.40;;;;;;6217739;28;20042;-80
2023/11/26 06:25:15;;;;;;;8.98;3.42;;;3.90;93.30;;;;;;6216364;28;20045;-79
2023/11/26 06:28:18;;;;;;;6.40;3.70;;;3.90;93.20;;;;;;6210877;28;20050;-79
2023/11/26 06:31:21;;;;;;;5.45;3.13;;;3.90;93.30;;;;;;6215063;28;20411;-79
2023/11/26 06:34:26;;;;;;;12.40;4.63;;;3.90;93.30;;;;;;6208205;28;20042;-79
2023/11/26 06:37:27;;;;;;;10.70;4.82;;;4.00;93.30;;;;;;6212196;28;20046;-79
2023/11/26 06:40:30;;;;;;;7.97;4.82;;;4.00;93.30;;;;;;6207559;28;20499;-79
2023/11/26 06:43:33;;;;;;;4.53;3.55;;;4.10;93.30;;;;;;6212761;28;20050;-80
2023/11/26 06:46:35;;;;;;;9.05;7.03;;;4.10;93.30;;;;;;6213839;28;20062;-80
2023/11/26 06:49:37;;;;;;;7.60;5.65;;;4.10;93.30;;;;;;6228795;28;20055;-80
2023/11/26 06:52:39;;;;;;;7.93;4.68;;;4.10;93.30;;;;;;6222712;28;20069;-80
2023/11/26 06:55:40;;;;;;;14.30;5.07;;;4.20;93.40;;;;;;6218102;28;20069;-80
2023/11/26 06:58:46;;;;;;;13.43;5.45;;;4.20;93.40;;;;;;6224755;28;20046;-79
2023/11/26 07:01:48;;;;;;;7.97;6.95;;;4.20;93.30;;;;;;6217171;28;20046;-80
2023/11/26 07:04:50;;;;;;;8.40;5.65;;;4.20;93.30;;;;;;6208133;28;20057;-80
2023/11/26 07:07:52;;;;;;;9.10;5.88;;;4.20;93.60;;;;;;6217253;28;20049;-80
2023/11/26 07:10:53;;;;;;;14.55;5.25;;;4.30;93.40;;;;;;6208791;28;20042;-79
2023/11/26 07:13:56;;;;;;;14.38;7.47;;;4.30;93.40;;;;;;6216395;28;20199;-79
2023/11/26 07:16:58;;;;;;;8.43;7.35;;;4.40;93.40;;;;;;6208688;28;20050;-79
2023/11/26 07:20:00;;;;;;;8.38;6.30;;;4.40;93.40;;;;;;6216542;28;20054;-80
2023/11/26 07:23:01;;;;;;;12.27;5.20;;;4.50;93.50;;;;;;6216385;28;20372;-79
2023/11/26 07:26:10;;;;;;;14.48;8.27;;;4.50;93.40;;;;;;6172807;28;20050;-79
2023/11/26 07:29:13;;;;;;;39.47;18.08;;;4.60;93.50;;;;;;6210858;28;20077;-80
2023/11/26 07:32:15;;;;;;;14.95;7.18;;;4.70;93.50;;;;;;6227621;28;20057;-79
2023/11/26 07:35:16;;;;;;;12.30;6.30;;;4.80;93.50;;;;;;6221717;28;20503;-78
2023/11/26 07:38:19;;;;;;;11.73;7.10;;;4.80;93.40;;;;;;6224278;28;20045;-79
2023/11/26 07:41:21;;;;;;;14.40;7.05;;;4.90;93.40;;;;;;6225133;28;20515;-79
2023/11/26 07:44:25;;;;;;;11.40;6.40;;;4.90;93.50;;;;;;6223385;28;20356;-79
2023/11/26 07:47:27;;;;;;;12.38;6.93;;;5.00;93.30;;;;;;6221687;28;20073;-79
2023/11/26 07:50:28;;;;;;;9.93;5.60;;;5.00;93.30;;;;;;6217532;28;20050;-79
2023/11/26 07:53:31;;;;;;;10.57;6.13;;;5.10;93.30;;;;;;6225517;28;20045;-80
2023/11/26 07:56:37;;;;;;;14.98;7.05;;;5.10;93.30;;;;;;6219134;28;20050;-79
2023/11/26 07:59:43;;;;;;;20.48;7.50;;;5.10;93.20;;;;;;6203585;28;20077;-82
2023/11/26 08:02:45;;;;;;;18.17;7.75;;;5.10;93.20;;;;;;6210379;28;20053;-80
2023/11/26 08:05:47;;;;;;;11.75;6.43;;;5.10;93.20;;;;;;6213696;28;20534;-80
2023/11/26 08:08:49;;;;;;;19.73;7.43;;;5.10;93.20;;;;;;6204047;28;20041;-79
2023/11/26 08:11:55;;;;;;;23.35;8.48;;;5.10;93.10;;;;;;6209532;28;20049;-79
2023/11/26 08:15:03;;;;;;;16.42;8.18;;;5.10;93.20;;;;;;6208912;28;20046;-79
2023/11/26 08:18:06;;;;;;;9.40;7.13;;;5.20;93.20;;;;;;6212722;28;20054;-79
2023/11/26 08:21:08;;;;;;;22.40;7.25;;;5.20;93.20;;;;;;6208930;28;20049;-79
2023/11/26 08:24:15;;;;;;;11.48;7.70;;;5.30;93.30;;;;;;6208980;28;20070;-81
2023/11/26 08:27:18;;;;;;;18.85;8.05;;;5.40;93.20;;;;;;6213666;28;20046;-80
2023/11/26 08:30:39;;;;;;;15.07;7.95;;;5.40;93.10;;;;;;6206323;28;20052;-80
2023/11/26 08:33:44;;;;;;;14.80;7.70;;;5.50;93.10;;;;;;6209480;28;20039;-79
2023/11/26 08:36:46;;;;;;;12.63;9.43;;;5.60;93.10;;;;;;6212551;28;20054;-79
2023/11/26 08:39:50;;;;;;;10.25;8.55;;;5.70;93.10;;;;;;6210895;28;20434;-80
2023/11/26 08:42:54;;;;;;;22.05;9.35;;;5.80;93.10;;;;;;6225003;28;20100;-79
2023/11/26 08:46:01;;;;;;;13.45;6.97;;;6.00;93.20;;;;;;6213979;28;20066;-79
2023/11/26 08:49:03;;;;;;;14.35;8.75;;;6.40;93.30;;;;;;6218781;28;20056;-79
2023/11/26 08:52:05;;;;;;;11.85;6.90;;;6.70;93.10;;;;;;6214023;28;20054;-80
2023/11/26 08:55:09;;;;;;;22.27;9.27;;;7.00;92.90;;;;;;6220296;28;20038;-79
2023/11/26 08:58:11;;;;;;;9.68;7.55;;;7.20;92.70;;;;;;6207882;28;20046;-80
2023/11/26 09:01:14;;;;;;;14.38;7.60;;;7.30;92.50;;;;;;6211650;28;20050;-80
2023/11/26 09:04:16;;;;;;;16.95;7.72;;;7.40;92.00;;;;;;6214852;28;20038;-80
2023/11/26 09:07:18;;;;;;;11.45;7.05;;;7.40;92.10;;;;;;6213512;28;20141;-79
2023/11/26 09:10:20;;;;;;;15.25;9.40;;;7.40;91.80;;;;;;6217444;28;20114;-79
2023/11/26 09:13:22;;;;;;;17.45;8.68;;;7.30;91.50;;;;;;6212748;28;20042;-80
2023/11/26 09:16:25;;;;;;;14.43;7.65;;;7.30;91.60;;;;;;6214947;28;20058;-79
2023/11/26 09:19:27;;;;;;;11.80;6.90;;;7.40;91.40;;;;;;6209136;28;20050;-78
2023/11/26 09:22:30;;;;;;;16.73;7.57;;;7.60;91.40;;;;;;6211895;28;20050;-79
2023/11/26 09:25:33;;;;;;;12.40;7.13;;;7.90;91.40;;;;;;6215659;28;20053;-81
2023/11/26 09:28:35;;;;;;;16.50;7.45;;;8.20;91.10;;;;;;6213746;28;20507;-80
2023/11/26 09:31:43;;;;;;;12.68;7.82;;;8.60;90.80;;;;;;6215160;28;20427;-79
2023/11/26 09:34:45;;;;;;;11.93;5.63;;;8.90;90.10;;;;;;6227189;28;20044;-79
2023/11/26 09:37:46;;;;;;;14.77;6.38;;;9.20;90.10;;;;;;6213169;28;20054;-80
2023/11/26 09:40:48;;;;;;;30.17;20.10;;;9.40;89.00;;;;;;6215928;28;20140;-80
2023/11/26 09:43:50;;;;;;;6.82;5.85;;;9.30;87.70;;;;;;6219311;28;20096;-79
2023/11/26 09:46:53;;;;;;;25.15;11.60;;;9.00;86.50;;;;;;6227461;28;20092;-79
2023/11/26 09:49:55;;;;;;;115.03;62.88;;;8.70;87.00;;;;;;6213805;28;20428;-80
2023/11/26 09:52:58;;;;;;;21.13;14.52;;;8.70;87.70;;;;;;6212267;28;20038;-79
2023/11/26 09:56:00;;;;;;;56.00;30.55;;;8.80;88.00;;;;;;6212244;28;20050;-80
2023/11/26 09:59:04;;;;;;;25.83;11.70;;;8.90;87.20;;;;;;6211468;28;20067;-78
2023/11/26 10:02:10;;;;;;;71.43;34.15;;;8.90;86.80;;;;;;6212858;28;20049;-80
2023/11/26 10:05:23;;;;;;;33.35;20.33;;;9.10;87.00;;;;;;6213285;28;20060;-79
2023/11/26 10:08:30;;;;;;;25.90;19.92;;;9.00;86.00;;;;;;6211933;28;20347;-79
2023/11/26 10:11:32;;;;;;;8.30;6.70;;;8.90;85.20;;;;;;6208387;28;20056;-79
2023/11/26 10:14:34;;;;;;;11.45;6.15;;;8.90;85.80;;;;;;6213597;28;20045;-80
2023/11/26 10:17:37;;;;;;;9.77;5.97;;;8.90;85.60;;;;;;6211777;28;20065;-80
2023/11/26 10:20:42;;;;;;;10.18;8.13;;;8.80;85.50;;;;;;6210370;28;20122;-80
2023/11/26 10:23:44;;;;;;;10.77;7.00;;;8.70;85.40;;;;;;6212276;28;20081;-79
2023/11/26 10:26:46;;;;;;;7.30;6.13;;;8.80;85.70;;;;;;6211992;28;20716;-80
2023/11/26 10:29:48;;;;;;;7.63;6.40;;;8.80;85.20;;;;;;6215316;28;20251;-79
2023/11/26 10:32:58;;;;;;;12.70;5.80;;;8.70;84.70;;;;;;6215384;28;20042;-79
2023/11/26 10:35:59;;;;;;;9.88;6.35;;;8.70;84.20;;;;;;6218709;28;20058;-78
2023/11/26 10:39:04;;;;;;;15.63;6.68;;;8.90;85.70;;;;;;6225620;28;20038;-79
2023/11/26 10:42:07;;;;;;;10.73;5.97;;;9.20;84.10;;;;;;6230286;28;20141;-78
2023/11/26 10:45:11;;;;;;;7.55;5.50;;;9.60;84.40;;;;;;6221789;28;20125;-80
2023/11/26 10:48:15;;;;;;;6.20;5.28;;;9.40;82.30;;;;;;6224739;28;20423;-81
2023/11/26 10:51:21;;;;;;;12.80;10.70;;;9.40;83.20;;;;;;6216920;28;20042;-80
2023/11/26 10:54:27;;;;;;;22.25;13.73;;;9.20;82.30;;;;;;6216633;28;20495;-80
2023/11/26 10:57:38;;;;;;;10.68;7.57;;;8.90;82.50;;;;;;6210992;28;20056;-81
2023/11/26 11:00:40;;;;;;;9.30;5.45;;;8.70;82.20;;;;;;6211958;28;20050;-80
2023/11/26 11:03:44;;;;;;;9.93;6.93;;;8.40;82.50;;;;;;6217638;28;20046;-80
2023/11/26 11:06:45;;;;;;;14.60;9.35;;;8.20;83.00;;;;;;6224971;28;20037;-80
2023/11/26 11:10:06;;;;;;;9.35;5.20;;;8.10;83.40;;;;;;6214027;28;20046;-79
2023/11/26 11:13:14;;;;;;;11.30;6.90;;;8.10;83.00;;;;;;6210147;28;20052;-80
2023/11/26 11:16:16;;;;;;;9.90;4.95;;;8.00;83.00;;;;;;6213865;28;20042;-78
2023/11/26 11:19:50;;;;;;;6.75;5.97;;;8.00;82.80;;;;;;6214687;28;20052;-78
2023/11/26 11:22:53;;;;;;;12.02;6.28;;;7.90;83.00;;;;;;6208687;28;20132;-81
2023/11/26 11:25:56;;;;;;;7.78;6.68;;;8.00;83.60;;;;;;6218566;28;20050;-82
2023/11/26 11:29:00;;;;;;;7.80;5.85;;;7.90;84.00;;;;;;6215025;28;20050;-79
2023/11/26 11:32:02;;;;;;;11.68;6.07;;;7.90;83.70;;;;;;6220195;28;20046;-80
2023/11/26 11:35:37;;;;;;;15.20;6.97;;;8.10;84.50;;;;;;6221651;28;20042;-81
2023/11/26 11:39:03;;;;;;;13.45;6.75;;;8.30;84.20;;;;;;6209689;28;20072;-80
2023/11/26 11:42:12;;;;;;;9.70;5.97;;;8.30;84.20;;;;;;6216310;28;20056;-83
2023/11/26 11:45:28;;;;;;;12.75;6.20;;;8.20;83.90;;;;;;6226010;28;20575;-82
2023/11/26 11:48:57;;;;;;;8.60;5.82;;;8.00;84.50;;;;;;6218290;28;20508;-81
2023/11/26 11:52:00;;;;;;;7.78;6.15;;;8.00;84.00;;;;;;6222619;28;20057;-81
2023/11/26 11:55:28;;;;;;;8.80;4.93;;;8.00;84.00;;;;;;6223161;28;20145;-82
2023/11/26 11:58:29;;;;;;;11.15;5.85;;;7.90;84.30;;;;;;6225019;28;20052;-82
2023/11/26 12:01:33;;;;;;;10.30;6.15;;;7.80;84.10;;;;;;6225936;28;20042;-83
2023/11/26 12:04:39;;;;;;;12.68;6.28;;;7.70;84.30;;;;;;6209127;28;20607;-81
2023/11/26 12:07:42;;;;;;;17.05;10.82;;;7.60;84.50;;;;;;6218075;28;20054;-82
2023/11/26 12:10:44;;;;;;;7.97;6.13;;;7.60;84.70;;;;;;6222677;28;20081;-81
2023/11/26 12:13:46;;;;;;;11.57;8.75;;;7.50;84.80;;;;;;6217923;28;20042;-82
2023/11/26 12:16:47;;;;;;;7.72;5.55;;;7.50;85.00;;;;;;6208900;28;20054;-82
2023/11/26 12:19:49;;;;;;;11.55;5.82;;;7.50;85.00;;;;;;6211583;28;20057;-82
2023/11/26 12:22:53;;;;;;;12.10;6.57;;;7.50;85.20;;;;;;6211082;28;20058;-81
2023/11/26 12:25:56;;;;;;;9.63;6.05;;;7.50;85.10;;;;;;6212361;28;20426;-82
2023/11/26 12:28:58;;;;;;;9.68;5.15;;;7.50;84.90;;;;;;6210581;28;20049;-82
2023/11/26 12:32:05;;;;;;;7.78;5.60;;;7.50;85.10;;;;;;6215149;28;20062;-80
2023/11/26 12:35:11;;;;;;;10.10;5.90;;;7.50;85.60;;;;;;6210904;28;20043;-79
2023/11/26 12:38:15;;;;;;;9.82;6.22;;;7.40;84.20;;;;;;6210997;28;20046;-82
2023/11/26 12:41:18;;;;;;;12.40;6.28;;;7.40;84.60;;;;;;6210260;28;20046;-82
2023/11/26 12:44:20;;;;;;;16.85;8.00;;;7.50;84.60;;;;;;6211900;28;20050;-83
2023/11/26 12:47:23;;;;;;;8.55;5.05;;;7.50;84.60;;;;;;6209255;28;20052;-82
2023/11/26 12:50:26;;;;;;;7.15;5.55;;;7.50;84.70;;;;;;6210438;28;20060;-81
2023/11/26 12:53:29;;;;;;;6.82;5.10;;;7.40;84.60;;;;;;6208376;28;20067;-80
2023/11/26 12:56:31;;;;;;;7.88;5.65;;;7.40;84.00;;;;;;6210205;28;20062;-82
2023/11/26 12:59:45;;;;;;;9.27;5.38;;;7.30;84.30;;;;;;6208960;28;20054;-80
2023/11/26 13:03:03;;;;;;;7.05;5.38;;;7.30;84.00;;;;;;6211831;28;20046;-82
2023/11/26 13:06:09;;;;;;;9.05;5.60;;;7.20;84.40;;;;;;6209104;28;20215;-78
2023/11/26 13:09:12;;;;;;;9.85;6.03;;;7.20;84.70;;;;;;6208854;28;20051;-80
2023/11/26 13:12:14;;;;;;;14.63;10.90;;;7.20;84.70;;;;;;6211840;28;20100;-80
2023/11/26 13:15:17;;;;;;;10.18;5.90;;;7.20;84.60;;;;;;6210739;28;20049;-82
2023/11/26 13:18:19;;;;;;;14.35;5.93;;;7.20;84.60;;;;;;6217365;28;20050;-84
2023/11/26 13:21:21;;;;;;;9.52;5.68;;;7.20;83.90;;;;;;6220207;28;20414;-82
2023/11/26 13:24:24;;;;;;;14.73;6.63;;;7.10;84.00;;;;;;6225689;28;20052;-82
2023/11/26 13:27:26;;;;;;;13.13;5.07;;;7.20;84.30;;;;;;6245872;28;20042;-85
2023/11/26 13:30:28;;;;;;;18.45;10.70;;;7.30;83.90;;;;;;6235658;28;20533;-84
2023/11/26 13:33:30;;;;;;;9.50;5.10;;;7.30;83.70;;;;;;6255057;28;20541;-82
2023/11/26 13:36:32;;;;;;;7.82;5.55;;;7.40;84.00;;;;;;6246779;28;20045;-83
2023/11/26 13:39:36;;;;;;;6.25;4.88;;;7.40;83.90;;;;;;6254522;28;20061;-82
2023/11/26 13:42:38;;;;;;;8.32;5.82;;;7.40;83.20;;;;;;6253425;28;20049;-83
2023/11/26 13:45:41;;;;;;;7.35;4.80;;;7.30;83.30;;;;;;6246107;28;20053;-83
2023/11/26 13:48:43;;;;;;;9.77;5.93;;;7.40;83.40;;;;;;6253891;28;20121;-82
2023/11/26 13:51:45;;;;;;;10.18;5.60;;;7.40;83.10;;;;;;6273896;28;20056;-81
2023/11/26 13:54:48;;;;;;;9.20;6.28;;;7.40;83.20;;;;;;6252517;28;20052;-81
2023/11/26 13:57:50;;;;;;;11.55;6.32;;;7.40;83.30;;;;;;6254238;28;20042;-83
2023/11/26 14:00:52;;;;;;;11.45;6.63;;;7.30;83.30;;;;;;6255512;28;20072;-82
2023/11/26 14:03:53;;;;;;;11.07;6.22;;;7.30;83.30;;;;;;6255832;28;20052;-83
2023/11/26 14:06:57;;;;;;;12.68;7.03;;;7.30;83.50;;;;;;6246128;28;20042;-83
2023/11/26 14:10:00;;;;;;;12.40;6.18;;;7.20;83.20;;;;;;6241606;28;20045;-82
2023/11/26 14:13:02;;;;;;;9.13;5.50;;;7.20;83.20;;;;;;6248475;28;20052;-82
2023/11/26 14:16:05;;;;;;;8.90;6.55;;;7.10;83.20;;;;;;6253142;28;20132;-80
2023/11/26 14:19:07;;;;;;;13.48;6.32;;;7.10;83.20;;;;;;6252600;28;20055;-82
2023/11/26 14:22:10;;;;;;;16.90;7.10;;;7.10;83.20;;;;;;6253260;28;20059;-82
2023/11/26 14:25:15;;;;;;;13.48;7.50;;;7.00;83.50;;;;;;6246871;28;20050;-82
2023/11/26 14:28:17;;;;;;;11.07;6.40;;;7.00;83.40;;;;;;6251885;28;20045;-82
2023/11/26 14:31:19;;;;;;;14.10;6.90;;;7.00;83.50;;;;;;6251176;28;20037;-82
2023/11/26 14:34:20;;;;;;;11.02;7.78;;;7.00;83.60;;;;;;6245469;28;20048;-81
2023/11/26 14:37:22;;;;;;;13.32;6.57;;;6.90;83.70;;;;;;6243238;28;20052;-81
2023/11/26 14:40:26;;;;;;;10.50;7.05;;;6.90;83.90;;;;;;6252548;28;20045;-80
2023/11/26 14:43:28;;;;;;;18.13;6.85;;;6.90;84.00;;;;;;6242715;28;20053;-79
2023/11/26 14:46:29;;;;;;;9.30;6.68;;;6.90;84.20;;;;;;6244836;28;20157;-81
2023/11/26 14:49:31;;;;;;;10.35;6.15;;;6.90;84.10;;;;;;6240107;28;20042;-80
2023/11/26 14:52:34;;;;;;;431.45;264.83;;;6.90;84.40;;;;;;6242544;28;20071;-80
2023/11/26 14:55:37;;;;;;;29.40;19.42;;;6.90;84.40;;;;;;6242239;28;20045;-80
2023/11/26 14:58:39;;;;;;;11.82;8.18;;;6.80;84.50;;;;;;6239735;28;20075;-80
2023/11/26 15:01:40;;;;;;;14.90;6.95;;;6.80;84.40;;;;;;6230643;28;20057;-81
2023/11/26 15:04:44;;;;;;;12.82;5.45;;;6.80;84.30;;;;;;6235949;28;20175;-80
2023/11/26 15:07:46;;;;;;;11.80;6.28;;;6.70;84.20;;;;;;6236153;28;20533;-80
2023/11/26 15:10:49;;;;;;;7.07;5.47;;;6.70;84.30;;;;;;6238258;28;20053;-81
2023/11/26 15:13:50;;;;;;;9.35;6.00;;;6.70;84.10;;;;;;6237731;28;20049;-81
2023/11/26 15:16:52;;;;;;;7.15;5.13;;;6.70;84.30;;;;;;6234725;28;23065;-80
2023/11/26 15:19:54;;;;;;;8.48;5.32;;;6.60;84.30;;;;;;6235378;28;20057;-79
2023/11/26 15:22:55;;;;;;;9.57;5.35;;;6.60;84.50;;;;;;6236201;28;20479;-81
2023/11/26 15:25:58;;;;;;;7.43;4.85;;;6.60;84.80;;;;;;6236904;28;20041;-79
2023/11/26 15:29:00;;;;;;;9.38;5.22;;;6.50;84.90;;;;;;6232801;28;20053;-80
2023/11/26 15:32:02;;;;;;;6.53;5.70;;;6.50;85.00;;;;;;6235212;28;20056;-80
2023/11/26 15:35:05;;;;;;;6.65;4.63;;;6.50;85.30;;;;;;6235297;28;20068;-80
2023/11/26 15:38:06;;;;;;;8.82;5.82;;;6.40;85.60;;;;;;6235177;28;20041;-80
2023/11/26 15:41:16;;;;;;;6.03;4.65;;;6.30;85.90;;;;;;6235694;28;20041;-81
2023/11/26 15:44:18;;;;;;;16.85;10.43;;;6.30;86.20;;;;;;6236921;28;20049;-80
2023/11/26 15:47:20;;;;;;;7.22;6.07;;;6.20;86.50;;;;;;6238927;28;20160;-81
2023/11/26 15:50:22;;;;;;;8.50;6.10;;;6.20;87.00;;;;;;6237674;28;20047;-80
2023/11/26 15:53:25;;;;;;;8.55;5.97;;;6.10;87.20;;;;;;6235866;28;20146;-79
2023/11/26 15:56:28;;;;;;;11.13;7.18;;;6.10;87.50;;;;;;6232764;28;20353;-79
2023/11/26 15:59:30;;;;;;;11.07;7.25;;;6.10;87.80;;;;;;6235568;28;20041;-80
2023/11/26 16:02:32;;;;;;;10.35;6.68;;;6.00;88.00;;;;;;6237647;28;20124;-79
2023/11/26 16:05:33;;;;;;;13.95;6.60;;;6.00;88.30;;;;;;6234992;28;20273;-78